createdAt,value
2019-03-25T00:00:40.023Z,1010.64
2019-03-25T00:01:40.014Z,1010.62
2019-03-25T00:02:40.012Z,1010.64
2019-03-25T00:03:40.002Z,1010.61
2019-03-25T00:04:39.994Z,1010.62
2019-03-25T00:05:39.986Z,1010.60
2019-03-25T00:06:39.978Z,1010.56
2019-03-25T00:07:39.973Z,1010.54
2019-03-25T00:08:39.965Z,1010.52
2019-03-25T00:09:39.957Z,1010.49
2019-03-25T00:10:39.950Z,1010.53
2019-03-25T00:11:39.942Z,1010.57
2019-03-25T00:12:39.936Z,1010.50
2019-03-25T00:13:39.930Z,1010.49
2019-03-25T00:14:39.922Z,1010.50
2019-03-25T00:15:39.913Z,1010.45
2019-03-25T00:16:39.906Z,1010.47
2019-03-25T00:17:39.898Z,1010.44
2019-03-25T00:18:39.890Z,1010.45
2019-03-25T00:19:39.884Z,1010.34
2019-03-25T00:20:39.879Z,1010.37
2019-03-25T00:21:39.870Z,1010.29
2019-03-25T00:22:39.862Z,1010.27
2019-03-25T00:23:39.857Z,1010.24
2019-03-25T00:24:39.849Z,1010.17
2019-03-25T00:25:39.840Z,1010.20
2019-03-25T00:26:39.834Z,1010.18
2019-03-25T00:27:39.827Z,1010.19
2019-03-25T00:28:39.824Z,1010.12
2019-03-25T00:29:39.810Z,1010.11
2019-03-25T00:30:39.804Z,1010.11
2019-03-25T00:31:39.801Z,1010.03
2019-03-25T00:32:39.789Z,1010.00
2019-03-25T00:33:39.784Z,1009.99
2019-03-25T00:34:39.775Z,1010.00
2019-03-25T00:35:39.767Z,1010.00
2019-03-25T00:36:39.762Z,1009.96
2019-03-25T00:37:39.752Z,1009.96
2019-03-25T00:38:39.745Z,1009.87
2019-03-25T00:39:39.737Z,1009.91
2019-03-25T00:40:39.731Z,1009.86
2019-03-25T00:41:39.722Z,1009.89
2019-03-25T00:42:39.715Z,1009.86
2019-03-25T00:43:39.707Z,1009.87
2019-03-25T00:44:39.702Z,1009.81
2019-03-25T00:45:39.694Z,1009.79
2019-03-25T00:46:39.690Z,1009.78
2019-03-25T00:47:39.681Z,1009.76
2019-03-25T00:48:39.674Z,1009.73
2019-03-25T00:49:39.664Z,1009.72
2019-03-25T00:50:39.657Z,1009.78
2019-03-25T00:51:39.651Z,1009.67
2019-03-25T00:52:39.643Z,1009.73
2019-03-25T00:53:39.635Z,1009.61
2019-03-25T00:54:49.513Z,1009.60
2019-03-25T00:55:39.620Z,1009.56
2019-03-25T00:56:39.613Z,1009.56
2019-03-25T00:57:39.605Z,1009.56
2019-03-25T00:58:39.599Z,1009.51
2019-03-25T00:59:39.592Z,1009.48
2019-03-25T01:00:39.587Z,1009.47
2019-03-25T01:01:39.577Z,1009.46
2019-03-25T01:02:39.569Z,1009.43
2019-03-25T01:03:39.563Z,1009.43
2019-03-25T01:04:39.559Z,1009.42
2019-03-25T01:05:39.551Z,1009.42
2019-03-25T01:06:39.540Z,1009.38
2019-03-25T01:07:39.533Z,1009.37
2019-03-25T01:08:39.528Z,1009.34
2019-03-25T01:09:39.520Z,1009.42
2019-03-25T01:10:39.516Z,1009.43
2019-03-25T01:11:48.591Z,1009.33
2019-03-25T01:12:39.498Z,1009.30
2019-03-25T01:13:39.491Z,1009.32
2019-03-25T01:14:39.485Z,1009.35
2019-03-25T01:15:39.476Z,1009.26
2019-03-25T01:16:39.500Z,1009.29
2019-03-25T01:17:39.464Z,1009.27
2019-03-25T01:18:39.456Z,1009.29
2019-03-25T01:19:39.450Z,1009.21
2019-03-25T01:20:39.445Z,1009.22
2019-03-25T01:21:39.438Z,1009.18
2019-03-25T01:22:39.427Z,1009.13
2019-03-25T01:23:39.420Z,1009.18
2019-03-25T01:24:39.414Z,1009.15
2019-03-25T01:25:39.407Z,1009.12
2019-03-25T01:26:39.405Z,1009.16
2019-03-25T01:27:39.392Z,1009.11
2019-03-25T01:28:39.386Z,1009.08
2019-03-25T01:29:39.378Z,1009.06
2019-03-25T01:30:39.372Z,1009.06
2019-03-25T01:31:39.369Z,1009.03
2019-03-25T01:32:39.357Z,1009.05
2019-03-25T01:33:39.348Z,1009.02
2019-03-25T01:34:39.343Z,1009.06
2019-03-25T01:35:39.335Z,1009.04
2019-03-25T01:36:39.330Z,1009.02
2019-03-25T01:37:39.321Z,1009.03
2019-03-25T01:38:39.315Z,1009.05
2019-03-25T01:39:39.307Z,1009.00
2019-03-25T01:40:39.300Z,1008.93
2019-03-25T01:41:39.292Z,1008.93
2019-03-25T01:42:39.287Z,1008.92
2019-03-25T01:43:39.280Z,1008.91
2019-03-25T01:44:39.273Z,1008.90
2019-03-25T01:45:39.264Z,1008.89
2019-03-25T01:46:39.258Z,1008.93
2019-03-25T01:47:39.252Z,1008.84
2019-03-25T01:48:39.245Z,1008.85
2019-03-25T01:49:39.235Z,1008.85
2019-03-25T01:50:39.228Z,1008.80
2019-03-25T01:51:39.223Z,1008.80
2019-03-25T01:52:39.215Z,1008.76
2019-03-25T01:53:39.208Z,1008.79
2019-03-25T01:54:39.203Z,1008.76
2019-03-25T01:55:39.195Z,1008.75
2019-03-25T01:56:39.188Z,1008.75
2019-03-25T01:57:39.180Z,1008.77
2019-03-25T01:58:39.173Z,1008.83
2019-03-25T01:59:39.165Z,1008.71
2019-03-25T02:00:39.160Z,1008.70
2019-03-25T02:01:39.152Z,1008.70
2019-03-25T02:02:39.145Z,1008.63
2019-03-25T02:03:39.139Z,1008.67
2019-03-25T02:04:39.133Z,1008.55
2019-03-25T02:05:39.124Z,1008.52
2019-03-25T02:06:39.116Z,1008.51
2019-03-25T02:07:39.110Z,1008.50
2019-03-25T02:08:39.105Z,1008.44
2019-03-25T02:09:39.095Z,1008.43
2019-03-25T02:10:39.088Z,1008.48
2019-03-25T02:11:39.082Z,1008.45
2019-03-25T02:12:39.079Z,1008.47
2019-03-25T02:13:39.069Z,1008.37
2019-03-25T02:14:39.061Z,1008.35
2019-03-25T02:15:39.055Z,1008.23
2019-03-25T02:16:39.048Z,1008.22
2019-03-25T02:17:39.041Z,1008.21
2019-03-25T02:18:39.037Z,1008.28
2019-03-25T02:19:39.029Z,1008.26
2019-03-25T02:20:39.020Z,1008.18
2019-03-25T02:21:39.015Z,1008.18
2019-03-25T02:22:39.105Z,1008.14
2019-03-25T02:23:38.998Z,1008.10
2019-03-25T02:24:38.993Z,1008.02
2019-03-25T02:25:38.983Z,1007.96
2019-03-25T02:26:38.977Z,1007.91
2019-03-25T02:27:38.971Z,1007.93
2019-03-25T02:28:38.966Z,1007.98
2019-03-25T02:29:38.957Z,1008.04
2019-03-25T02:30:38.951Z,1008.03
2019-03-25T02:31:38.943Z,1008.04
2019-03-25T02:32:38.939Z,1008.05
2019-03-25T02:33:38.928Z,1008.01
2019-03-25T02:34:38.926Z,1007.95
2019-03-25T02:35:38.916Z,1007.95
2019-03-25T02:36:38.909Z,1007.93
2019-03-25T02:37:38.903Z,1007.92
2019-03-25T02:38:38.894Z,1008.07
2019-03-25T02:39:38.888Z,1007.96
2019-03-25T02:40:38.900Z,1007.89
2019-03-25T02:41:38.874Z,1007.91
2019-03-25T02:42:38.865Z,1007.93
2019-03-25T02:43:38.859Z,1007.88
2019-03-25T02:44:38.854Z,1007.90
2019-03-25T02:45:38.846Z,1007.99
2019-03-25T02:46:38.842Z,1008.05
2019-03-25T02:47:38.830Z,1008.10
2019-03-25T02:48:38.826Z,1008.00
2019-03-25T02:49:38.824Z,1007.88
2019-03-25T02:50:38.811Z,1008.13
2019-03-25T02:51:38.804Z,1007.96
2019-03-25T02:52:38.796Z,1007.98
2019-03-25T02:53:38.789Z,1007.93
2019-03-25T02:54:38.823Z,1007.97
2019-03-25T02:55:42.042Z,1007.96
2019-03-25T02:56:38.770Z,1007.98
2019-03-25T02:57:38.762Z,1007.93
2019-03-25T02:58:38.754Z,1007.99
2019-03-25T02:59:38.747Z,1007.94
2019-03-25T03:00:38.740Z,1007.96
2019-03-25T03:01:38.734Z,1007.90
2019-03-25T03:02:38.728Z,1008.02
2019-03-25T03:03:38.720Z,1008.08
2019-03-25T03:04:38.714Z,1008.09
2019-03-25T03:05:38.707Z,1008.05
2019-03-25T03:06:38.701Z,1008.15
2019-03-25T03:07:38.692Z,1008.32
2019-03-25T03:08:38.685Z,1008.34
2019-03-25T03:09:38.678Z,1008.41
2019-03-25T03:10:38.742Z,1008.42
2019-03-25T03:11:38.672Z,1008.37
2019-03-25T03:12:38.663Z,1008.43
2019-03-25T03:13:38.651Z,1008.35
2019-03-25T03:14:38.643Z,1008.50
2019-03-25T03:15:38.636Z,1008.46
2019-03-25T03:16:38.630Z,1008.53
2019-03-25T03:17:38.639Z,1008.42
2019-03-25T03:18:38.617Z,1008.45
2019-03-25T03:19:38.613Z,1008.51
2019-03-25T03:20:38.601Z,1008.49
2019-03-25T03:21:38.595Z,1008.54
2019-03-25T03:22:38.595Z,1008.51
2019-03-25T03:23:38.583Z,1008.42
2019-03-25T03:24:38.573Z,1008.44
2019-03-25T03:25:38.570Z,1008.50
2019-03-25T03:26:38.563Z,1008.48
2019-03-25T03:27:38.552Z,1008.54
2019-03-25T03:28:38.544Z,1008.56
2019-03-25T03:29:38.539Z,1008.58
2019-03-25T03:30:38.532Z,1008.55
2019-03-25T03:31:38.524Z,1008.52
2019-03-25T03:32:38.520Z,1008.51
2019-03-25T03:33:38.509Z,1008.53
2019-03-25T03:34:38.504Z,1008.47
2019-03-25T03:35:38.497Z,1008.51
2019-03-25T03:36:38.488Z,1008.48
2019-03-25T03:37:38.483Z,1008.48
2019-03-25T03:38:38.474Z,1008.47
2019-03-25T03:39:38.468Z,1008.50
2019-03-25T03:40:38.461Z,1008.49
2019-03-25T03:41:38.481Z,1008.42
2019-03-25T03:42:38.445Z,1008.31
2019-03-25T03:43:38.446Z,1008.21
2019-03-25T03:44:38.437Z,1008.25
2019-03-25T03:45:38.450Z,1008.26
2019-03-25T03:46:38.418Z,1008.16
2019-03-25T03:47:38.409Z,1008.25
2019-03-25T03:48:38.404Z,1008.20
2019-03-25T03:49:38.395Z,1008.17
2019-03-25T03:50:38.388Z,1008.23
2019-03-25T03:51:38.382Z,1008.21
2019-03-25T03:52:38.377Z,1008.26
2019-03-25T03:53:38.365Z,1008.20
2019-03-25T03:54:38.358Z,1008.21
2019-03-25T03:55:38.350Z,1008.24
2019-03-25T03:56:38.344Z,1008.26
2019-03-25T03:57:38.340Z,1008.23
2019-03-25T03:58:38.331Z,1008.22
2019-03-25T03:59:38.322Z,1008.21
2019-03-25T04:00:38.316Z,1008.19
2019-03-25T04:01:38.310Z,1008.18
2019-03-25T04:02:38.314Z,1008.19
2019-03-25T04:03:38.296Z,1008.19
2019-03-25T04:04:38.287Z,1008.18
2019-03-25T04:05:38.283Z,1008.13
2019-03-25T04:06:38.271Z,1008.18
2019-03-25T04:07:38.266Z,1008.17
2019-03-25T04:08:38.257Z,1008.16
2019-03-25T04:09:38.249Z,1008.12
2019-03-25T04:10:38.244Z,1008.15
2019-03-25T04:11:38.236Z,1008.14
2019-03-25T04:12:38.232Z,1008.11
2019-03-25T04:13:38.222Z,1008.13
2019-03-25T04:14:38.214Z,1008.17
2019-03-25T04:15:38.215Z,1008.19
2019-03-25T04:16:38.202Z,1008.16
2019-03-25T04:17:38.191Z,1008.13
2019-03-25T04:18:38.204Z,1008.09
2019-03-25T04:19:38.179Z,1008.08
2019-03-25T04:20:38.175Z,1008.15
2019-03-25T04:21:38.165Z,1008.13
2019-03-25T04:22:38.157Z,1008.16
2019-03-25T04:23:38.152Z,1008.09
2019-03-25T04:24:38.155Z,1008.05
2019-03-25T04:25:38.135Z,1008.06
2019-03-25T04:26:38.127Z,1008.05
2019-03-25T04:27:38.119Z,1008.01
2019-03-25T04:28:38.112Z,1008.04
2019-03-25T04:29:38.104Z,1008.08
2019-03-25T04:30:38.097Z,1008.03
2019-03-25T04:31:38.100Z,1008.07
2019-03-25T04:32:38.116Z,1008.05
2019-03-25T04:33:38.076Z,1008.07
2019-03-25T04:34:38.067Z,1008.11
2019-03-25T04:35:38.062Z,1008.13
2019-03-25T04:36:38.051Z,1008.15
2019-03-25T04:37:38.044Z,1008.13
2019-03-25T04:38:38.036Z,1008.13
2019-03-25T04:39:38.028Z,1008.22
2019-03-25T04:40:38.024Z,1008.22
2019-03-25T04:41:38.017Z,1008.17
2019-03-25T04:42:38.006Z,1008.18
2019-03-25T04:43:37.999Z,1008.14
2019-03-25T04:44:37.991Z,1008.15
2019-03-25T04:45:37.982Z,1008.18
2019-03-25T04:46:37.975Z,1008.15
2019-03-25T04:47:37.968Z,1008.17
2019-03-25T04:48:37.960Z,1008.21
2019-03-25T04:49:37.953Z,1008.18
2019-03-25T04:50:37.945Z,1008.17
2019-03-25T04:51:37.936Z,1008.14
2019-03-25T04:52:37.932Z,1008.14
2019-03-25T04:53:37.923Z,1008.13
2019-03-25T04:54:37.914Z,1008.13
2019-03-25T04:55:37.907Z,1008.12
2019-03-25T04:56:40.035Z,1008.09
2019-03-25T04:57:37.892Z,1008.14
2019-03-25T04:58:37.888Z,1008.11
2019-03-25T04:59:37.877Z,1008.14
2019-03-25T05:00:37.869Z,1008.11
2019-03-25T05:01:37.861Z,1008.16
2019-03-25T05:02:37.855Z,1008.19
2019-03-25T05:03:37.847Z,1008.13
2019-03-25T05:04:37.841Z,1008.13
2019-03-25T05:05:37.830Z,1008.13
2019-03-25T05:06:37.823Z,1008.12
2019-03-25T05:07:37.816Z,1008.08
2019-03-25T05:08:37.807Z,1008.07
2019-03-25T05:09:37.803Z,1008.10
2019-03-25T05:10:37.795Z,1008.09
2019-03-25T05:11:37.786Z,1008.08
2019-03-25T05:12:37.778Z,1008.05
2019-03-25T05:13:37.769Z,1008.09
2019-03-25T05:14:37.763Z,1008.05
2019-03-25T05:15:37.752Z,1008.05
2019-03-25T05:16:37.746Z,1008.08
2019-03-25T05:17:37.742Z,1008.05
2019-03-25T05:18:37.731Z,1008.03
2019-03-25T05:19:37.724Z,1008.05
2019-03-25T05:20:37.718Z,1008.05
2019-03-25T05:21:37.708Z,1008.02
2019-03-25T05:22:37.701Z,1008.04
2019-03-25T05:23:37.694Z,1008.03
2019-03-25T05:24:37.685Z,1008.01
2019-03-25T05:25:37.676Z,1008.03
2019-03-25T05:26:37.670Z,1008.05
2019-03-25T05:27:37.663Z,1008.05
2019-03-25T05:28:37.654Z,1008.03
2019-03-25T05:29:37.646Z,1008.03
2019-03-25T05:30:37.641Z,1008.05
2019-03-25T05:31:37.632Z,1008.04
2019-03-25T05:32:37.626Z,1008.02
2019-03-25T05:33:37.618Z,1008.05
2019-03-25T05:34:37.608Z,1008.03
2019-03-25T05:35:37.600Z,1007.98
2019-03-25T05:36:37.593Z,1008.03
2019-03-25T05:37:37.587Z,1008.00
2019-03-25T05:38:37.578Z,1008.03
2019-03-25T05:39:37.572Z,1008.03
2019-03-25T05:40:37.563Z,1008.02
2019-03-25T05:41:37.554Z,1007.99
2019-03-25T05:42:37.548Z,1007.98
2019-03-25T05:43:37.540Z,1007.96
2019-03-25T05:44:37.531Z,1007.97
2019-03-25T05:45:37.523Z,1007.98
2019-03-25T05:46:37.517Z,1007.93
2019-03-25T05:47:37.510Z,1007.98
2019-03-25T05:48:37.503Z,1007.97
2019-03-25T05:49:37.493Z,1007.95
2019-03-25T05:50:37.486Z,1007.95
2019-03-25T05:51:37.483Z,1007.96
2019-03-25T05:52:37.469Z,1008.00
2019-03-25T05:53:37.462Z,1008.01
2019-03-25T05:54:37.455Z,1008.02
2019-03-25T05:55:37.450Z,1008.05
2019-03-25T05:56:37.440Z,1008.02
2019-03-25T05:57:37.431Z,1008.01
2019-03-25T05:58:37.424Z,1008.05
2019-03-25T05:59:37.417Z,1008.05
2019-03-25T06:00:37.411Z,1008.02
2019-03-25T06:01:37.402Z,1008.07
2019-03-25T06:02:37.452Z,1008.02
2019-03-25T06:03:37.387Z,1008.07
2019-03-25T06:04:37.381Z,1008.01
2019-03-25T06:05:37.371Z,1008.03
2019-03-25T06:06:37.365Z,1008.05
2019-03-25T06:07:37.357Z,1008.09
2019-03-25T06:08:37.350Z,1007.98
2019-03-25T06:09:37.342Z,1007.99
2019-03-25T06:10:37.335Z,1007.97
2019-03-25T06:11:37.327Z,1007.94
2019-03-25T06:12:37.321Z,1007.95
2019-03-25T06:13:37.313Z,1007.94
2019-03-25T06:14:37.305Z,1007.97
2019-03-25T06:15:37.297Z,1007.91
2019-03-25T06:16:37.292Z,1007.94
2019-03-25T06:17:37.283Z,1007.93
2019-03-25T06:18:37.275Z,1007.89
2019-03-25T06:19:37.269Z,1007.89
2019-03-25T06:20:37.263Z,1007.87
2019-03-25T06:21:37.254Z,1007.86
2019-03-25T06:22:37.246Z,1007.93
2019-03-25T06:23:37.240Z,1007.90
2019-03-25T06:24:37.237Z,1007.88
2019-03-25T06:25:37.227Z,1007.92
2019-03-25T06:26:37.219Z,1007.82
2019-03-25T06:27:37.213Z,1007.83
2019-03-25T06:28:37.205Z,1007.83
2019-03-25T06:29:37.195Z,1007.84
2019-03-25T06:30:37.188Z,1007.83
2019-03-25T06:31:37.181Z,1007.85
2019-03-25T06:32:37.176Z,1007.84
2019-03-25T06:33:37.168Z,1007.84
2019-03-25T06:34:37.160Z,1007.83
2019-03-25T06:35:37.154Z,1007.75
2019-03-25T06:36:37.150Z,1007.74
2019-03-25T06:37:37.139Z,1007.77
2019-03-25T06:38:37.132Z,1007.78
2019-03-25T06:39:37.124Z,1007.82
2019-03-25T06:40:37.124Z,1007.81
2019-03-25T06:41:37.110Z,1007.92
2019-03-25T06:42:37.114Z,1007.96
2019-03-25T06:43:37.207Z,1008.04
2019-03-25T06:44:37.090Z,1007.91
2019-03-25T06:45:37.081Z,1007.92
2019-03-25T06:46:37.074Z,1007.99
2019-03-25T06:47:37.068Z,1007.99
2019-03-25T06:48:37.061Z,1007.90
2019-03-25T06:49:37.055Z,1007.87
2019-03-25T06:50:37.048Z,1007.88
2019-03-25T06:51:37.040Z,1007.91
2019-03-25T06:53:30.840Z,1007.85
2019-03-25T06:56:20.831Z,1007.71
2019-03-25T06:57:25.529Z,1007.71
2019-03-25T06:58:20.209Z,1007.70
2019-03-25T06:59:20.200Z,1007.72
2019-03-25T07:01:19.814Z,1007.75
2019-03-25T07:02:19.805Z,1007.74
2019-03-25T07:03:19.799Z,1007.76
2019-03-25T07:04:19.792Z,1007.68
2019-03-25T07:05:19.786Z,1007.75
2019-03-25T07:06:19.776Z,1007.70
2019-03-25T07:07:19.770Z,1007.68
2019-03-25T07:08:19.762Z,1007.75
2019-03-25T07:09:19.761Z,1007.73
2019-03-25T07:10:19.746Z,1007.76
2019-03-25T07:11:19.738Z,1007.72
2019-03-25T07:12:19.733Z,1007.70
2019-03-25T07:13:19.730Z,1007.70
2019-03-25T07:14:19.719Z,1007.64
2019-03-25T07:15:19.713Z,1007.62
2019-03-25T07:16:19.705Z,1007.68
2019-03-25T07:17:19.700Z,1007.65
2019-03-25T07:18:19.692Z,1007.70
2019-03-25T07:19:19.689Z,1007.68
2019-03-25T07:20:19.677Z,1007.76
2019-03-25T07:21:20.551Z,1007.79
2019-03-25T07:22:19.662Z,1007.76
2019-03-25T07:23:19.658Z,1007.88
2019-03-25T07:24:19.650Z,1007.85
2019-03-25T07:25:19.648Z,1007.74
2019-03-25T07:26:22.664Z,1007.72
2019-03-25T07:27:19.630Z,1007.65
2019-03-25T07:28:19.627Z,1007.68
2019-03-25T07:29:19.617Z,1007.80
2019-03-25T07:30:19.611Z,1007.79
2019-03-25T07:31:19.604Z,1007.83
2019-03-25T07:32:19.598Z,1007.87
2019-03-25T07:33:19.590Z,1007.77
2019-03-25T07:34:19.584Z,1007.81
2019-03-25T07:35:19.578Z,1007.82
2019-03-25T07:36:19.572Z,1007.83
2019-03-25T07:37:19.565Z,1007.88
2019-03-25T07:38:19.559Z,1007.89
2019-03-25T07:39:20.158Z,1007.82
2019-03-25T07:40:19.544Z,1007.82
2019-03-25T07:41:19.538Z,1007.87
2019-03-25T07:42:19.531Z,1007.91
2019-03-25T07:43:19.526Z,1007.90
2019-03-25T07:44:19.518Z,1007.97
2019-03-25T07:45:19.511Z,1007.84
2019-03-25T07:46:19.508Z,1007.81
2019-03-25T07:47:19.498Z,1007.77
2019-03-25T07:48:19.494Z,1007.87
2019-03-25T07:49:19.488Z,1007.84
2019-03-25T07:50:19.479Z,1007.89
2019-03-25T07:51:19.473Z,1007.92
2019-03-25T07:52:19.466Z,1007.85
2019-03-25T07:54:19.462Z,1008.07
2019-03-25T07:55:19.453Z,1008.03
2019-03-25T07:56:19.463Z,1008.11
2019-03-25T07:57:19.441Z,1008.18
2019-03-25T07:58:19.435Z,1008.15
2019-03-25T07:59:20.267Z,1008.14
2019-03-25T08:00:19.410Z,1008.04
2019-03-25T08:01:19.413Z,1008.08
2019-03-25T08:02:19.397Z,1008.05
2019-03-25T08:03:19.408Z,1008.08
2019-03-25T08:04:19.397Z,1008.09
2019-03-25T08:05:19.385Z,1008.01
2019-03-25T08:06:19.372Z,1008.05
2019-03-25T08:07:19.362Z,1007.94
2019-03-25T08:08:19.358Z,1007.96
2019-03-25T08:09:19.350Z,1008.07
2019-03-25T08:10:19.366Z,1008.15
2019-03-25T08:11:19.360Z,1008.23
2019-03-25T08:12:19.352Z,1008.23
2019-03-25T08:13:19.385Z,1008.22
2019-03-25T08:14:19.323Z,1008.26
2019-03-25T08:15:19.309Z,1008.23
2019-03-25T08:16:19.304Z,1008.26
2019-03-25T08:17:19.297Z,1008.36
2019-03-25T08:18:19.288Z,1008.32
2019-03-25T08:19:19.281Z,1008.32
2019-03-25T08:20:19.274Z,1008.39
2019-03-25T08:21:19.267Z,1008.34
2019-03-25T08:22:19.261Z,1008.34
2019-03-25T08:23:19.256Z,1008.43
2019-03-25T08:24:19.249Z,1008.38
2019-03-25T08:25:19.242Z,1008.47
2019-03-25T08:26:19.233Z,1008.50
2019-03-25T08:27:19.227Z,1008.44
2019-03-25T08:28:19.220Z,1008.44
2019-03-25T08:29:19.215Z,1008.42
2019-03-25T08:30:19.208Z,1008.41
2019-03-25T08:31:19.201Z,1008.39
2019-03-25T08:32:19.193Z,1008.37
2019-03-25T08:33:19.797Z,1008.33
2019-03-25T08:35:12.518Z,1008.39
2019-03-25T08:36:12.512Z,1008.33
2019-03-25T08:37:12.506Z,1008.43
2019-03-25T08:38:12.496Z,1008.54
2019-03-25T08:39:12.494Z,1008.48
2019-03-25T08:41:45.896Z,1008.42
2019-03-25T08:43:54.313Z,1008.37
2019-03-25T08:44:54.306Z,1008.44
2019-03-25T08:45:54.298Z,1008.41
2019-03-25T08:46:54.295Z,1008.36
2019-03-25T08:47:54.287Z,1008.36
2019-03-25T08:48:54.282Z,1008.31
2019-03-25T08:49:54.274Z,1008.45
2019-03-25T08:50:54.273Z,1008.70
2019-03-25T08:51:54.260Z,1008.45
2019-03-25T08:52:54.260Z,1008.54
2019-03-25T08:53:54.249Z,1008.33
2019-03-25T08:54:54.244Z,1008.57
2019-03-25T08:55:54.265Z,1008.54
2019-03-25T08:56:54.230Z,1008.62
2019-03-25T08:57:54.224Z,1008.69
2019-03-25T08:58:54.222Z,1008.72
2019-03-25T08:59:54.213Z,1008.75
2019-03-25T09:00:54.211Z,1008.65
2019-03-25T09:01:54.202Z,1009.26
2019-03-25T09:02:54.195Z,1009.41
2019-03-25T09:03:54.188Z,1008.85
2019-03-25T09:04:54.183Z,1009.02
2019-03-25T09:05:54.177Z,1009.22
2019-03-25T09:06:54.175Z,1008.87
2019-03-25T09:07:54.168Z,1009.45
2019-03-25T09:08:54.167Z,1009.00
2019-03-25T09:09:54.157Z,1009.07
2019-03-25T09:10:54.153Z,1009.10
2019-03-25T09:11:54.149Z,1008.86
2019-03-25T09:12:54.144Z,1009.25
2019-03-25T09:13:54.141Z,1009.25
2019-03-25T09:14:54.136Z,1009.10
2019-03-25T09:15:54.135Z,1008.81
2019-03-25T09:16:54.129Z,1009.53
2019-03-25T09:17:54.124Z,1008.89
2019-03-25T09:18:54.122Z,1009.49
2019-03-25T09:19:54.119Z,1009.58
2019-03-25T09:20:54.116Z,1009.68
2019-03-25T09:21:54.113Z,1009.65
2019-03-25T09:22:54.110Z,1009.09
2019-03-25T09:23:54.107Z,1009.61
2019-03-25T09:24:54.106Z,1009.91
2019-03-25T09:25:54.105Z,1009.64
2019-03-25T09:26:54.103Z,1009.38
2019-03-25T09:27:54.104Z,1009.98
2019-03-25T09:28:54.102Z,1009.59
2019-03-25T09:29:54.099Z,1009.68
2019-03-25T09:30:54.102Z,1009.85
2019-03-25T09:31:54.100Z,1009.62
2019-03-25T09:32:54.099Z,1009.66
2019-03-25T09:33:54.098Z,1009.82
2019-03-25T09:34:54.102Z,1009.81
2019-03-25T09:35:54.167Z,1009.10
2019-03-25T09:36:54.100Z,1009.14
2019-03-25T09:37:54.100Z,1009.04
2019-03-25T09:38:54.105Z,1009.02
2019-03-25T09:39:54.103Z,1008.89
2019-03-25T09:40:54.104Z,1008.87
2019-03-25T09:41:54.105Z,1008.97
2019-03-25T09:42:54.103Z,1009.07
2019-03-25T09:43:54.109Z,1008.96
2019-03-25T09:44:54.101Z,1008.92
2019-03-25T09:45:54.104Z,1009.07
2019-03-25T09:46:54.100Z,1009.06
2019-03-25T09:47:54.098Z,1009.11
2019-03-25T09:48:54.098Z,1009.16
2019-03-25T09:49:54.096Z,1009.13
2019-03-25T09:50:54.093Z,1010.03
2019-03-25T09:51:54.090Z,1009.49
2019-03-25T09:52:54.090Z,1010.04
2019-03-25T09:53:54.087Z,1010.08
2019-03-25T09:54:54.084Z,1010.18
2019-03-25T09:55:54.085Z,1010.18
2019-03-25T09:56:54.078Z,1010.34
2019-03-25T09:57:54.076Z,1009.52
2019-03-25T09:58:54.080Z,1010.23
2019-03-25T09:59:54.076Z,1010.19
2019-03-25T10:00:54.075Z,1010.24
2019-03-25T10:01:54.071Z,1010.22
2019-03-25T10:02:54.071Z,1009.48
2019-03-25T10:03:54.071Z,1009.65
2019-03-25T10:04:54.069Z,1010.38
2019-03-25T10:05:54.068Z,1010.15
2019-03-25T10:06:54.069Z,1010.44
2019-03-25T10:07:54.067Z,1010.43
2019-03-25T10:08:54.069Z,1010.21
2019-03-25T10:09:54.068Z,1010.25
2019-03-25T10:10:54.068Z,1010.33
2019-03-25T10:11:54.068Z,1009.59
2019-03-25T10:12:56.681Z,1009.66
2019-03-25T10:13:54.069Z,1009.67
2019-03-25T10:14:54.069Z,1009.65
2019-03-25T10:15:54.069Z,1010.11
2019-03-25T10:16:54.071Z,1009.53
2019-03-25T10:17:54.070Z,1009.57
2019-03-25T10:18:54.071Z,1009.53
2019-03-25T10:19:54.070Z,1009.68
2019-03-25T10:20:54.084Z,1009.75
2019-03-25T10:21:54.070Z,1009.76
2019-03-25T10:22:54.066Z,1009.56
2019-03-25T10:23:54.072Z,1009.53
2019-03-25T10:24:54.067Z,1009.50
2019-03-25T10:25:54.064Z,1009.87
2019-03-25T10:26:54.065Z,1010.24
2019-03-25T10:27:54.061Z,1010.28
2019-03-25T10:28:54.061Z,1010.43
2019-03-25T10:29:54.056Z,1010.25
2019-03-25T10:30:54.056Z,1009.98
2019-03-25T10:31:54.056Z,1009.75
2019-03-25T10:32:54.053Z,1009.63
2019-03-25T10:33:54.055Z,1009.80
2019-03-25T10:34:54.049Z,1009.77
2019-03-25T10:35:54.046Z,1010.09
2019-03-25T10:36:54.045Z,1009.99
2019-03-25T10:37:54.041Z,1009.99
2019-03-25T10:38:54.040Z,1010.18
2019-03-25T10:39:54.037Z,1009.99
2019-03-25T10:40:54.037Z,1010.05
2019-03-25T10:41:54.031Z,1010.14
2019-03-25T10:42:54.028Z,1010.14
2019-03-25T10:43:54.026Z,1010.53
2019-03-25T10:44:54.023Z,1010.66
2019-03-25T10:45:54.018Z,1010.50
2019-03-25T10:46:54.016Z,1010.58
2019-03-25T10:47:54.014Z,1010.56
2019-03-25T10:48:54.009Z,1010.65
2019-03-25T10:49:54.004Z,1010.75
2019-03-25T10:50:54.000Z,1010.72
2019-03-25T10:51:53.999Z,1010.69
2019-03-25T10:52:53.996Z,1010.68
2019-03-25T10:53:53.994Z,1010.75
2019-03-25T10:55:53.988Z,1010.76
2019-03-25T10:56:53.987Z,1010.45
2019-03-25T10:57:53.983Z,1010.30
2019-03-25T10:58:58.069Z,1010.17
2019-03-25T10:59:53.977Z,1010.14
2019-03-25T11:00:53.974Z,1010.22
2019-03-25T11:01:53.974Z,1010.42
2019-03-25T11:02:53.971Z,1010.18
2019-03-25T11:03:53.968Z,1010.36
2019-03-25T11:04:53.970Z,1010.34
2019-03-25T11:05:53.962Z,1010.31
2019-03-25T11:06:53.962Z,1010.19
2019-03-25T11:07:53.958Z,1010.30
2019-03-25T11:08:53.956Z,1010.13
2019-03-25T11:09:53.951Z,1010.13
2019-03-25T11:10:53.949Z,1010.07
2019-03-25T11:11:53.943Z,1010.05
2019-03-25T11:12:53.940Z,1010.00
2019-03-25T11:13:53.936Z,1009.97
2019-03-25T11:14:53.932Z,1010.02
2019-03-25T11:15:53.931Z,1010.00
2019-03-25T11:16:53.927Z,1010.25
2019-03-25T11:17:53.919Z,1010.47
2019-03-25T11:18:53.916Z,1010.54
2019-03-25T11:19:53.910Z,1010.33
2019-03-25T11:20:53.905Z,1010.21
2019-03-25T11:21:53.901Z,1010.20
2019-03-25T11:22:57.592Z,1010.28
2019-03-25T11:23:53.894Z,1010.35
2019-03-25T11:24:54.091Z,1010.38
2019-03-25T11:25:53.885Z,1010.41
2019-03-25T11:26:53.881Z,1010.63
2019-03-25T11:27:54.582Z,1010.86
2019-03-25T11:28:53.870Z,1010.78
2019-03-25T11:29:53.866Z,1010.64
2019-03-25T11:30:54.872Z,1010.67
2019-03-25T11:31:53.858Z,1010.62
2019-03-25T11:32:53.852Z,1010.46
2019-03-25T11:33:53.850Z,1010.43
2019-03-25T11:34:53.845Z,1010.41
2019-03-25T11:35:53.840Z,1010.64
2019-03-25T11:36:53.835Z,1010.54
2019-03-25T11:37:53.832Z,1010.50
2019-03-25T11:38:53.826Z,1010.44
2019-03-25T11:39:53.823Z,1010.56
2019-03-25T11:40:53.819Z,1010.46
2019-03-25T11:41:53.816Z,1010.34
2019-03-25T11:42:53.811Z,1010.31
2019-03-25T11:43:53.807Z,1010.32
2019-03-25T11:44:53.805Z,1010.38
2019-03-25T11:45:53.799Z,1010.29
2019-03-25T11:46:53.795Z,1010.37
2019-03-25T11:47:53.792Z,1010.37
2019-03-25T11:48:53.788Z,1010.24
2019-03-25T11:49:53.850Z,1010.55
2019-03-25T11:50:53.778Z,1010.59
2019-03-25T11:51:53.775Z,1010.26
2019-03-25T11:52:53.782Z,1010.36
2019-03-25T11:53:53.769Z,1010.26
2019-03-25T11:54:53.765Z,1010.33
2019-03-25T11:55:53.758Z,1010.18
2019-03-25T11:56:53.755Z,1010.22
2019-03-25T11:57:53.752Z,1010.12
2019-03-25T11:58:53.746Z,1010.18
2019-03-25T11:59:53.743Z,1010.18
2019-03-25T12:00:53.737Z,1010.24
2019-03-25T12:01:53.734Z,1010.14
2019-03-25T12:02:53.730Z,1010.32
2019-03-25T12:03:53.725Z,1010.18
2019-03-25T12:04:53.721Z,1010.13
2019-03-25T12:05:53.717Z,1010.21
2019-03-25T12:06:53.714Z,1010.16
2019-03-25T12:07:53.710Z,1010.23
2019-03-25T12:08:53.704Z,1010.15
2019-03-25T12:09:53.700Z,1010.10
2019-03-25T12:10:53.697Z,1010.28
2019-03-25T12:11:53.692Z,1010.09
2019-03-25T12:12:53.687Z,1010.25
2019-03-25T12:13:53.682Z,1010.29
2019-03-25T12:14:53.678Z,1010.34